Portada
METAR-TAF:

METAR-TAF

Aeropuertos :

Aeropuerto Internacional de Yap

Yap, Micronesia

latitud: 09-29N, longitud: 138-05E, altitud: 28 m

Observación

El informe se hizo hace 50 minutos, a las 18:57 UTC
Viento 2 kt con dirección variable
Temperatura 27°C
Humedad 94%
Presión 1011 hPa
Visibilidad: 19.3 km
Escasas nubes a una altura de 1600 ft
Nubes dispersas a una altura de 13000 ft
Cielo cubierto a una altura de 30000 ft

METAR: PTYA 211857Z VRB02KT 12SM FEW016 SCT130 OVC300 27/26 A2986 RMK SLP112 T02720255

Hora: 05:47 (19:47 UTC)

Pronóstico

El informe se hizo hace 2 horas y 17 minutos, a las 17:30 UTC
Pronóstico válido del 21 a las 18 UTC al 22 a las 18 UTC
Viento 4 kt con dirección variable
Visibilidad: 10 km
Nubes dispersas a una altura de 1600 ft
Cielo nuboso a una altura de 13000 ft
chaparrones en las proximidades

TAF: PTYA 211730Z 2118/2218 VRB04KT P6SM VCSH SCT016 BKN130

Observaciones y pronósticos meteorológicos de más de 4000 aeropuertos (mensajes METAR y TAF).

Los puntos amarillos y rojos representan las estaciones disponibles.

Ponga el ratón en el punto deseado para ver el nombre de la estación.

Haga clic para ver las observaciones y los pronósticos meteorológicos.

Para cambiar el mapa : haga clic en los botones verdes con una cruz de color negro para hacer un zoom, en el botón verde con un guión para alejar o en las flechas verdes para mapas adyacentes.


METAR-TAF: